createdAt,value
2022-10-13T00:01:09.823Z,101119.59
2022-10-13T00:03:38.323Z,101121.47
2022-10-13T00:06:08.036Z,101130.53
2022-10-13T00:08:38.313Z,101126.75
2022-10-13T00:11:12.812Z,101130.41
2022-10-13T00:13:41.424Z,101131.59
2022-10-13T00:16:10.355Z,101128.16
2022-10-13T00:18:38.078Z,101125.06
2022-10-13T00:21:08.950Z,101123.88
2022-10-13T00:23:38.489Z,101114.81
2022-10-13T00:26:08.554Z,101124.09
2022-10-13T00:28:36.893Z,101122.69
2022-10-13T00:31:05.628Z,101126.63
2022-10-13T00:33:33.616Z,101111.59
2022-10-13T00:36:01.547Z,101111.94
2022-10-13T00:38:29.561Z,101114.47
2022-10-13T00:40:58.869Z,101110.91
2022-10-13T00:43:28.872Z,101107.13
2022-10-13T00:45:56.809Z,101108.50
2022-10-13T00:48:28.629Z,101108.34
2022-10-13T00:50:59.368Z,101103.53
2022-10-13T00:53:33.645Z,101101.84
2022-10-13T00:56:04.023Z,101099.25
2022-10-13T00:58:33.749Z,101098.41
2022-10-13T01:01:02.409Z,101100.13
2022-10-13T01:03:30.602Z,101086.59
2022-10-13T01:06:01.370Z,101087.81
2022-10-13T01:08:30.612Z,101087.81
2022-10-13T01:11:12.278Z,101086.59
2022-10-13T01:13:45.575Z,101086.59
2022-10-13T01:16:24.008Z,101084.22
2022-10-13T01:19:00.979Z,101085.06
2022-10-13T01:21:34.449Z,101085.25
2022-10-13T01:24:29.430Z,101088.69
2022-10-13T01:27:13.931Z,101085.75
2022-10-13T01:30:08.803Z,101097.06
2022-10-13T01:32:58.735Z,101103.56
2022-10-13T01:35:39.307Z,101090.38
2022-10-13T01:38:14.815Z,101072.59
2022-10-13T01:40:51.513Z,101091.56
2022-10-13T01:43:23.325Z,101089.53
2022-10-13T01:45:58.737Z,101089.34
2022-10-13T01:48:29.355Z,101087.28
2022-10-13T01:51:00.039Z,101091.75
2022-10-13T01:53:29.940Z,101081.16
2022-10-13T01:55:59.735Z,101081.47
2022-10-13T01:58:31.099Z,101086.78
2022-10-13T02:01:15.783Z,101081.66
2022-10-13T02:03:53.864Z,101080.63
2022-10-13T02:06:26.065Z,101073.25
2022-10-13T02:09:00.740Z,101082.00
2022-10-13T02:11:29.111Z,101070.72
2022-10-13T02:14:03.302Z,101074.13
2022-10-13T02:16:36.577Z,101074.13
2022-10-13T02:19:06.818Z,101077.03
2022-10-13T02:21:35.747Z,101072.59
2022-10-13T02:24:04.856Z,101072.41
2022-10-13T02:26:34.083Z,101071.22
2022-10-13T02:29:11.039Z,101075.84
2022-10-13T02:31:41.306Z,101073.28
2022-10-13T02:34:09.585Z,101072.94
2022-10-13T02:36:39.083Z,101063.53
2022-10-13T02:39:07.575Z,101066.28
2022-10-13T02:41:35.524Z,101063.19
2022-10-13T02:44:03.490Z,101061.81
2022-10-13T02:46:43.433Z,101060.44
2022-10-13T02:49:11.452Z,101068.31
2022-10-13T02:51:40.539Z,101068.47
2022-10-13T02:54:09.328Z,101060.94
2022-10-13T02:56:37.236Z,101058.41
2022-10-13T02:59:05.327Z,101061.78
2022-10-13T03:01:33.768Z,101052.94
2022-10-13T03:04:03.082Z,101061.97
2022-10-13T03:06:31.025Z,101058.84
2022-10-13T03:08:59.296Z,101065.38
2022-10-13T03:11:27.262Z,101063.97
2022-10-13T03:13:55.343Z,101061.25
2022-10-13T03:16:23.407Z,101054.41
2022-10-13T03:18:51.367Z,101071.81
2022-10-13T03:21:20.629Z,101070.47
2022-10-13T03:23:48.572Z,101070.63
2022-10-13T03:26:16.806Z,101076.78
2022-10-13T03:28:45.011Z,101075.75
2022-10-13T03:31:13.788Z,101071.66
2022-10-13T03:33:41.904Z,101073.56
2022-10-13T03:36:09.888Z,101066.72
2022-10-13T03:38:41.201Z,101062.63
2022-10-13T03:41:12.533Z,101064.81
2022-10-13T03:43:41.824Z,101067.06
2022-10-13T03:46:12.883Z,101066.75
2022-10-13T03:48:42.167Z,101070.53
2022-10-13T03:51:12.150Z,101066.75
2022-10-13T03:53:48.180Z,101064.22
2022-10-13T03:56:18.092Z,101067.41
2022-10-13T03:58:54.327Z,101065.84
2022-10-13T04:01:23.347Z,101063.13
2022-10-13T04:03:53.901Z,101059.34
2022-10-13T04:06:22.514Z,101065.50
2022-10-13T04:08:52.708Z,101068.78
2022-10-13T04:11:21.870Z,101070.13
2022-10-13T04:13:53.440Z,101065.00
2022-10-13T04:16:24.542Z,101055.91
2022-10-13T04:18:53.833Z,101066.53
2022-10-13T04:21:21.929Z,101065.47
2022-10-13T04:23:51.712Z,101063.28
2022-10-13T04:26:21.983Z,101061.72
2022-10-13T04:28:52.322Z,101066.69
2022-10-13T04:31:22.039Z,101059.31
2022-10-13T04:33:50.576Z,101057.78
2022-10-13T04:36:19.232Z,101051.09
2022-10-13T04:38:52.028Z,101063.59
2022-10-13T04:41:20.340Z,101058.28
2022-10-13T04:43:49.519Z,101064.78
2022-10-13T04:46:19.439Z,101062.88
2022-10-13T04:48:48.180Z,101059.97
2022-10-13T04:51:18.701Z,101065.09
2022-10-13T04:53:46.858Z,101063.03
2022-10-13T04:56:18.504Z,101066.25
2022-10-13T04:58:47.263Z,101065.56
2022-10-13T05:01:21.464Z,101063.84
2022-10-13T05:03:52.629Z,101056.16
2022-10-13T05:06:23.478Z,101063.97
2022-10-13T05:08:57.018Z,101063.81
2022-10-13T05:11:27.688Z,101061.09
2022-10-13T05:13:56.325Z,101061.75
2022-10-13T05:16:24.701Z,101065.81
2022-10-13T05:18:54.917Z,101067.69
2022-10-13T05:21:25.208Z,101068.72
2022-10-13T05:23:55.778Z,101073.00
2022-10-13T05:26:28.576Z,101071.63
2022-10-13T05:28:58.200Z,101067.31
2022-10-13T05:31:28.438Z,101077.78
2022-10-13T05:33:57.768Z,101074.19
2022-10-13T05:36:27.219Z,101076.41
2022-10-13T05:38:57.138Z,101080.66
2022-10-13T05:41:27.192Z,101080.53
2022-10-13T05:43:59.079Z,101086.72
2022-10-13T05:46:27.511Z,101087.22
2022-10-13T05:48:55.475Z,101094.91
2022-10-13T05:51:27.787Z,101093.56
2022-10-13T05:54:02.124Z,101094.72
2022-10-13T05:56:34.509Z,101098.50
2022-10-13T05:59:07.323Z,101103.44
2022-10-13T06:01:40.877Z,101107.16
2022-10-13T06:04:15.124Z,101104.28
2022-10-13T06:06:46.722Z,101102.22
2022-10-13T06:09:15.167Z,101104.97
2022-10-13T06:11:43.125Z,101115.38
2022-10-13T06:14:12.464Z,101115.94
2022-10-13T06:16:41.117Z,101118.84
2022-10-13T06:19:09.133Z,101104.88
2022-10-13T06:21:37.049Z,101109.03
2022-10-13T06:24:05.316Z,101102.53
2022-10-13T06:26:33.216Z,101108.03
2022-10-13T06:29:01.287Z,101106.38
2022-10-13T06:31:31.322Z,101113.91
2022-10-13T06:33:59.869Z,101108.94
2022-10-13T06:36:28.085Z,101111.22
2022-10-13T06:38:56.052Z,101108.84
2022-10-13T06:41:24.107Z,101113.44
2022-10-13T06:43:52.036Z,101110.56
2022-10-13T06:46:22.630Z,101115.84
2022-10-13T06:48:52.227Z,101116.91
2022-10-13T06:51:21.385Z,101116.03
2022-10-13T06:53:50.524Z,101114.50
2022-10-13T06:56:22.325Z,101124.44
2022-10-13T06:58:50.273Z,101119.97
2022-10-13T07:01:18.427Z,101125.97
2022-10-13T07:03:51.149Z,101122.53
2022-10-13T07:06:22.080Z,101126.47
2022-10-13T07:08:51.847Z,101122.81
2022-10-13T07:11:20.572Z,101112.41
2022-10-13T07:13:55.127Z,101111.03
2022-10-13T07:16:23.174Z,101108.25
2022-10-13T07:18:52.529Z,101106.16
2022-10-13T07:21:20.469Z,101108.34
2022-10-13T07:23:48.441Z,101114.81
2022-10-13T07:26:17.373Z,101109.16
2022-10-13T07:28:45.252Z,101105.31
2022-10-13T07:31:15.458Z,101093.63
2022-10-13T07:33:45.154Z,101107.94
2022-10-13T07:36:15.068Z,101102.78
2022-10-13T07:38:43.037Z,101098.75
2022-10-13T07:41:12.126Z,101096.63
2022-10-13T07:43:40.278Z,101097.44
2022-10-13T07:46:09.245Z,101095.38
2022-10-13T07:48:37.277Z,101100.44
2022-10-13T07:51:07.273Z,101104.75
2022-10-13T07:53:37.149Z,101105.72
2022-10-13T07:56:06.867Z,101108.50
2022-10-13T07:58:35.380Z,101105.47
2022-10-13T08:01:03.877Z,101098.84
2022-10-13T08:03:32.772Z,101106.00
2022-10-13T08:06:01.156Z,101106.28
2022-10-13T08:08:29.927Z,101097.09
2022-10-13T08:11:02.713Z,101100.03
2022-10-13T08:13:33.159Z,101102.69
2022-10-13T08:16:09.528Z,101100.28
2022-10-13T08:18:37.505Z,101096.13
2022-10-13T08:23:55.079Z,101103.34
2022-10-13T08:26:27.405Z,101094.53
2022-10-13T08:29:20.296Z,101087.09
2022-10-13T08:31:44.607Z,101087.28
2022-10-13T08:34:13.364Z,101089.47
2022-10-13T08:36:41.588Z,101089.66
2022-10-13T08:39:09.529Z,101080.47
2022-10-13T08:41:41.667Z,101083.81
2022-10-13T08:47:13.403Z,101077.34
2022-10-13T08:49:43.562Z,101074.72
2022-10-13T08:52:18.696Z,101069.34
2022-10-13T08:54:47.514Z,101072.44
2022-10-13T08:57:18.801Z,101072.44
2022-10-13T08:59:47.471Z,101080.56
2022-10-13T09:02:23.171Z,101074.22
2022-10-13T09:04:53.489Z,101079.50
2022-10-13T09:07:24.177Z,101072.88
2022-10-13T09:09:53.561Z,101083.69
2022-10-13T09:12:25.247Z,101086.81
2022-10-13T09:15:01.527Z,101068.25
2022-10-13T09:17:31.283Z,101078.16
2022-10-13T09:20:01.886Z,101071.25
2022-10-13T09:22:32.162Z,101074.22
2022-10-13T09:25:16.874Z,101078.63
2022-10-13T09:27:49.532Z,101071.59
2022-10-13T09:30:39.577Z,101078.34
2022-10-13T09:33:23.160Z,101069.72
2022-10-13T09:36:08.110Z,101074.84
2022-10-13T09:38:36.540Z,101069.03
2022-10-13T09:41:07.263Z,101062.63
2022-10-13T09:43:41.866Z,101049.06
2022-10-13T09:46:14.919Z,101047.59
2022-10-13T09:48:46.152Z,101048.22
2022-10-13T09:51:38.008Z,101045.81
2022-10-13T09:54:28.316Z,101051.31
2022-10-13T09:57:02.320Z,101045.19
2022-10-13T09:59:36.612Z,101047.53
2022-10-13T10:02:22.419Z,101042.00
2022-10-13T10:04:54.910Z,101034.44
2022-10-13T10:07:30.020Z,101022.50
2022-10-13T10:10:04.817Z,101029.13
2022-10-13T10:12:42.021Z,101021.75
2022-10-13T10:15:25.450Z,101014.56
2022-10-13T10:18:05.668Z,101015.69
2022-10-13T10:20:46.554Z,101013.31
2022-10-13T10:23:20.341Z,101008.25
2022-10-13T10:25:52.446Z,101002.56
2022-10-13T10:28:41.339Z,100999.66
2022-10-13T10:31:25.688Z,101001.22
2022-10-13T10:34:08.097Z,100993.66
2022-10-13T10:36:43.394Z,101001.41
2022-10-13T10:39:22.993Z,100988.63
2022-10-13T10:41:58.528Z,100997.63
2022-10-13T10:44:31.595Z,100993.34
2022-10-13T10:47:05.710Z,100984.41
2022-10-13T10:49:35.643Z,100976.47
2022-10-13T10:52:08.015Z,100976.13
2022-10-13T10:54:49.151Z,100977.63
2022-10-13T10:57:24.714Z,100976.19
2022-10-13T11:00:00.715Z,100976.78
2022-10-13T11:02:45.893Z,100975.53
2022-10-13T11:05:14.774Z,100973.13
2022-10-13T11:08:00.441Z,100971.31
2022-10-13T11:10:29.862Z,100974.44
2022-10-13T11:13:22.338Z,100969.97
2022-10-13T11:15:50.634Z,100959.44
2022-10-13T11:19:05.676Z,100955.38
2022-10-13T11:22:23.270Z,100958.97
2022-10-13T11:25:01.636Z,100955.19
2022-10-13T11:27:40.809Z,100939.75
2022-10-13T11:30:43.878Z,100928.19
2022-10-13T11:33:54.763Z,100919.00
2022-10-13T11:36:57.759Z,100917.66
2022-10-13T11:40:02.031Z,100907.47
2022-10-13T11:42:46.330Z,100901.41
2022-10-13T11:45:27.467Z,100906.13
2022-10-13T11:48:20.826Z,100905.94
2022-10-13T11:50:53.744Z,100894.63
2022-10-13T11:53:25.505Z,100892.44
2022-10-13T11:55:54.750Z,100890.31
2022-10-13T11:58:27.360Z,100875.78
2022-10-13T12:00:58.327Z,100879.09
2022-10-13T12:03:29.812Z,100877.50
2022-10-13T12:06:01.888Z,100869.69
2022-10-13T12:08:31.902Z,100870.75
2022-10-13T12:11:02.898Z,100872.44
2022-10-13T12:13:33.650Z,100865.38
2022-10-13T12:16:03.508Z,100868.78
2022-10-13T12:18:34.859Z,100874.19
2022-10-13T12:21:05.036Z,100868.66
2022-10-13T12:23:35.951Z,100870.41
2022-10-13T12:26:05.184Z,100868.34
2022-10-13T12:28:53.052Z,100866.31
2022-10-13T12:31:22.570Z,100862.31
2022-10-13T12:33:55.904Z,100859.91
2022-10-13T12:36:30.241Z,100858.28
2022-10-13T12:39:02.463Z,100851.84
2022-10-13T12:41:33.113Z,100848.97
2022-10-13T12:44:05.804Z,100850.06
2022-10-13T12:46:40.047Z,100848.47
2022-10-13T12:49:08.929Z,100845.81
2022-10-13T12:51:38.103Z,100844.16
2022-10-13T12:54:10.605Z,100843.16
2022-10-13T12:56:38.559Z,100838.88
2022-10-13T12:59:16.689Z,100839.72
2022-10-13T13:01:46.653Z,100839.75
2022-10-13T13:04:28.549Z,100839.72
2022-10-13T13:06:57.440Z,100840.47
2022-10-13T13:09:28.334Z,100833.28
2022-10-13T13:12:29.747Z,100827.91
2022-10-13T13:15:20.494Z,100830.81
2022-10-13T13:18:04.069Z,100825.44
2022-10-13T13:20:34.783Z,100820.72
2022-10-13T13:23:02.872Z,100825.78
2022-10-13T13:25:30.879Z,100821.84
2022-10-13T13:27:58.676Z,100826.00
2022-10-13T13:30:28.021Z,100827.34
2022-10-13T13:32:55.952Z,100822.91
2022-10-13T13:35:23.927Z,100825.97
2022-10-13T13:37:53.825Z,100820.75
2022-10-13T13:40:23.684Z,100823.66
2022-10-13T13:42:52.057Z,100816.47
2022-10-13T13:45:22.757Z,100821.19
2022-10-13T13:47:53.537Z,100816.41
2022-10-13T13:50:25.535Z,100813.25
2022-10-13T13:52:59.626Z,100812.78
2022-10-13T13:55:28.084Z,100811.34
2022-10-13T13:57:56.039Z,100804.22
2022-10-13T14:00:24.567Z,100810.88
2022-10-13T14:02:57.711Z,100811.13
2022-10-13T14:05:25.736Z,100814.56
2022-10-13T14:07:55.722Z,100825.44
2022-10-13T14:10:23.723Z,100814.41
2022-10-13T14:12:51.917Z,100813.84
2022-10-13T14:15:19.988Z,100804.81
2022-10-13T14:17:47.987Z,100806.50
2022-10-13T14:20:17.424Z,100803.56
2022-10-13T14:22:45.484Z,100812.75
2022-10-13T14:25:14.935Z,100810.75
2022-10-13T14:27:43.037Z,100805.00
2022-10-13T14:30:12.140Z,100807.53
2022-10-13T14:32:40.029Z,100811.31
2022-10-13T14:35:08.499Z,100803.69
2022-10-13T14:37:38.107Z,100800.88
2022-10-13T14:40:07.164Z,100804.53
2022-10-13T14:42:35.196Z,100803.59
2022-10-13T14:45:07.724Z,100801.47
2022-10-13T14:47:38.595Z,100798.38
2022-10-13T14:50:08.209Z,100794.00
2022-10-13T14:52:37.538Z,100795.47
2022-10-13T14:55:06.276Z,100803.66
2022-10-13T14:57:37.126Z,100801.34
2022-10-13T15:00:05.908Z,100797.31
2022-10-13T15:02:33.815Z,100806.06
2022-10-13T15:05:01.806Z,100794.78
2022-10-13T15:07:31.090Z,100815.31
2022-10-13T15:10:05.469Z,100798.13
2022-10-13T15:12:34.330Z,100800.81
2022-10-13T15:15:02.308Z,100800.63
2022-10-13T15:17:31.596Z,100800.97
2022-10-13T15:19:59.620Z,100798.63
2022-10-13T15:22:27.593Z,100797.50
2022-10-13T15:24:55.555Z,100802.38
2022-10-13T15:27:25.099Z,100803.59
2022-10-13T15:29:53.140Z,100799.97
2022-10-13T15:32:21.824Z,100800.66
2022-10-13T15:34:55.856Z,100799.41
2022-10-13T15:37:23.835Z,100798.88
2022-10-13T15:39:56.871Z,100805.84
2022-10-13T15:42:26.957Z,100798.41
2022-10-13T15:45:09.262Z,100802.50
2022-10-13T15:47:38.245Z,100801.94
2022-10-13T15:50:06.781Z,100799.69
2022-10-13T15:52:38.999Z,100799.50
2022-10-13T15:55:07.455Z,100797.41
2022-10-13T15:57:36.790Z,100797.91
2022-10-13T16:00:06.739Z,100792.22
2022-10-13T16:02:40.407Z,100794.41
2022-10-13T16:05:10.817Z,100785.97
2022-10-13T16:07:40.305Z,100791.94
2022-10-13T16:10:09.463Z,100793.22
2022-10-13T16:12:39.282Z,100795.38
2022-10-13T16:15:08.306Z,100795.66
2022-10-13T16:17:36.599Z,100790.75
2022-10-13T16:20:05.466Z,100794.81
2022-10-13T16:22:33.588Z,100795.66
2022-10-13T16:25:01.588Z,100797.81
2022-10-13T16:27:29.636Z,100803.97
2022-10-13T16:29:59.006Z,100801.22
2022-10-13T16:32:26.920Z,100801.66
2022-10-13T16:34:55.067Z,100807.13
2022-10-13T16:37:23.467Z,100807.75
2022-10-13T16:39:52.170Z,100818.50
2022-10-13T16:42:20.379Z,100805.97
2022-10-13T16:44:48.327Z,100806.56
2022-10-13T16:47:18.801Z,100811.16
2022-10-13T16:49:48.026Z,100807.09
2022-10-13T16:52:17.520Z,100813.25
2022-10-13T16:54:45.397Z,100810.50
2022-10-13T16:57:13.346Z,100811.28
2022-10-13T16:59:41.588Z,100821.09
2022-10-13T17:02:14.690Z,100816.38
2022-10-13T17:04:44.600Z,100822.38
2022-10-13T17:07:12.791Z,100821.88
2022-10-13T17:09:40.865Z,100829.47
2022-10-13T17:12:09.074Z,100825.44
2022-10-13T17:14:37.153Z,100823.81
2022-10-13T17:17:05.558Z,100825.53
2022-10-13T17:19:33.666Z,100828.88
2022-10-13T17:22:03.015Z,100824.53
2022-10-13T17:24:30.976Z,100830.91
2022-10-13T17:26:58.937Z,100818.94
2022-10-13T17:29:27.498Z,100821.59
2022-10-13T17:31:56.949Z,100820.44
2022-10-13T17:34:24.921Z,100820.28
2022-10-13T17:36:52.841Z,100815.56
2022-10-13T17:39:22.181Z,100813.72
2022-10-13T17:41:50.387Z,100814.50
2022-10-13T17:44:20.748Z,100815.16
2022-10-13T17:46:49.868Z,100803.25
2022-10-13T17:49:18.184Z,100811.88
2022-10-13T17:51:46.408Z,100808.47
2022-10-13T17:54:16.396Z,100816.47
2022-10-13T17:56:46.578Z,100812.84
2022-10-13T17:59:15.152Z,100813.63
2022-10-13T18:01:44.959Z,100817.09
2022-10-13T18:04:18.671Z,100816.06
2022-10-13T18:06:49.963Z,100815.25
2022-10-13T18:09:23.422Z,100809.09
2022-10-13T18:11:54.820Z,100806.09
2022-10-13T18:14:25.118Z,100808.75
2022-10-13T18:16:56.547Z,100803.47
2022-10-13T18:19:26.824Z,100806.78
2022-10-13T18:21:58.946Z,100802.72
2022-10-13T18:24:28.607Z,100805.19
2022-10-13T18:26:58.259Z,100793.22
2022-10-13T18:29:29.543Z,100794.25
2022-10-13T18:31:57.485Z,100797.56
2022-10-13T18:34:25.738Z,100796.72
2022-10-13T18:36:56.628Z,100807.41
2022-10-13T18:39:26.509Z,100798.72
2022-10-13T18:41:57.110Z,100784.53
2022-10-13T18:44:36.233Z,100802.97
2022-10-13T18:47:06.939Z,100803.34
2022-10-13T18:49:36.159Z,100809.38
2022-10-13T18:52:04.182Z,100799.56
2022-10-13T18:54:32.489Z,100804.66
2022-10-13T18:57:00.458Z,100807.94
2022-10-13T18:59:28.519Z,100806.44
2022-10-13T19:01:57.802Z,100807.19
2022-10-13T19:04:26.607Z,100799.25
2022-10-13T19:06:55.346Z,100802.94
2022-10-13T19:09:24.909Z,100804.16
2022-10-13T19:11:52.847Z,100801.31
2022-10-13T19:14:24.557Z,100805.75
2022-10-13T19:16:52.722Z,100799.78
2022-10-13T19:19:25.169Z,100805.28
2022-10-13T19:21:54.980Z,100805.19
2022-10-13T19:24:22.897Z,100804.88
2022-10-13T19:26:50.919Z,100799.94
2022-10-13T19:29:18.898Z,100794.66
2022-10-13T19:31:46.841Z,100809.94
2022-10-13T19:34:16.547Z,100804.25
2022-10-13T19:36:47.484Z,100805.31
2022-10-13T19:39:18.160Z,100800.22
2022-10-13T19:41:47.087Z,100809.28
2022-10-13T19:44:15.014Z,100813.22
2022-10-13T19:46:44.994Z,100812.28
2022-10-13T19:49:15.296Z,100808.31
2022-10-13T19:51:47.491Z,100803.75
2022-10-13T19:54:15.984Z,100802.53
2022-10-13T19:56:48.253Z,100801.88
2022-10-13T19:59:17.504Z,100806.88
2022-10-13T20:01:45.558Z,100797.50
2022-10-13T20:04:15.553Z,100798.19
2022-10-13T20:06:46.302Z,100800.94
2022-10-13T20:09:14.664Z,100792.28
2022-10-13T20:11:44.999Z,100795.03
2022-10-13T20:14:13.059Z,100803.41
2022-10-13T20:16:41.159Z,100804.50
2022-10-13T20:19:09.319Z,100799.19
2022-10-13T20:21:37.231Z,100801.97
2022-10-13T20:24:07.054Z,100810.75
2022-10-13T20:26:36.678Z,100803.91
2022-10-13T20:29:05.487Z,100800.31
2022-10-13T20:31:33.550Z,100799.28
2022-10-13T20:34:01.829Z,100805.13
2022-10-13T20:36:37.555Z,100806.88
2022-10-13T20:39:08.973Z,100807.91
2022-10-13T20:41:37.053Z,100809.78
2022-10-13T20:44:05.070Z,100796.09
2022-10-13T20:46:34.812Z,100801.81
2022-10-13T20:49:10.962Z,100803.34
2022-10-13T20:51:40.872Z,100799.25
2022-10-13T20:54:10.881Z,100796.66
2022-10-13T20:56:39.291Z,100792.06
2022-10-13T20:59:09.986Z,100791.94
2022-10-13T21:01:38.525Z,100787.69
2022-10-13T21:04:06.793Z,100789.72
2022-10-13T21:06:35.795Z,100790.56
2022-10-13T21:09:04.282Z,100792.63
2022-10-13T21:11:34.355Z,100786.84
2022-10-13T21:14:06.501Z,100783.44
2022-10-13T21:16:35.026Z,100780.22
2022-10-13T21:19:03.170Z,100781.91
2022-10-13T21:21:33.345Z,100782.59
2022-10-13T21:24:03.667Z,100786.53
2022-10-13T21:26:33.653Z,100782.41
2022-10-13T21:29:02.646Z,100783.13
2022-10-13T21:31:31.703Z,100781.41
2022-10-13T21:33:59.665Z,100784.66
2022-10-13T21:36:30.819Z,100786.91
2022-10-13T21:39:03.485Z,100783.13
2022-10-13T21:41:33.098Z,100770.53
2022-10-13T21:44:01.065Z,100775.66
2022-10-13T21:46:34.057Z,100769.31
2022-10-13T21:49:04.024Z,100770.69
2022-10-13T21:51:34.663Z,100777.53
2022-10-13T21:54:06.031Z,100777.03
2022-10-13T21:56:36.037Z,100767.97
2022-10-13T21:59:05.484Z,100766.25
2022-10-13T22:01:34.228Z,100772.06
2022-10-13T22:04:03.977Z,100765.56
2022-10-13T22:06:32.566Z,100768.13
2022-10-13T22:09:02.462Z,100765.56
2022-10-13T22:11:32.977Z,100761.84
2022-10-13T22:14:06.288Z,100763.19
2022-10-13T22:16:37.357Z,100759.97
2022-10-13T22:19:05.964Z,100760.47
2022-10-13T22:21:40.319Z,100765.09
2022-10-13T22:24:10.662Z,100754.84
2022-10-13T22:26:41.170Z,100760.00
2022-10-13T22:29:11.793Z,100760.84
2022-10-13T22:31:39.800Z,100757.59
2022-10-13T22:34:11.210Z,100753.53
2022-10-13T22:36:44.496Z,100755.78
2022-10-13T22:39:13.191Z,100757.63
2022-10-13T22:41:41.669Z,100757.81
2022-10-13T22:44:10.999Z,100753.88
2022-10-13T22:46:39.916Z,100756.78
2022-10-13T22:49:13.391Z,100755.94
2022-10-13T22:51:41.494Z,100756.63
2022-10-13T22:54:10.295Z,100749.78
2022-10-13T22:56:38.777Z,100756.63
2022-10-13T22:59:09.485Z,100754.75
2022-10-13T23:01:38.858Z,100759.00
2022-10-13T23:04:07.509Z,100741.28
2022-10-13T23:06:36.280Z,100754.94
2022-10-13T23:09:09.213Z,100757.13
2022-10-13T23:11:37.561Z,100760.91
2022-10-13T23:14:06.783Z,100749.97
2022-10-13T23:16:35.117Z,100752.03
2022-10-13T23:19:04.738Z,100745.56
2022-10-13T23:21:33.028Z,100746.56
2022-10-13T23:24:03.286Z,100754.59
2022-10-13T23:26:32.305Z,100755.28
2022-10-13T23:29:00.995Z,100758.03
2022-10-13T23:31:28.975Z,100760.75
2022-10-13T23:33:57.723Z,100760.41
2022-10-13T23:36:29.903Z,100762.09
2022-10-13T23:39:00.843Z,100767.22
2022-10-13T23:41:30.125Z,100761.41
2022-10-13T23:43:58.410Z,100759.38
2022-10-13T23:46:26.901Z,100766.22
2022-10-13T23:48:54.847Z,100766.38
2022-10-13T23:51:24.724Z,100764.81
2022-10-13T23:53:54.375Z,100763.13
2022-10-13T23:56:22.676Z,100754.09
2022-10-13T23:58:50.660Z,100752.03
